This is the latest recevied weather packets stored in our database for station/object GW1542. If no packets are shown the sender has not sent any weather packets the latest 10 day(s).
| Time | Temp. | Humidity | Pressure | Rain* | Wind** | Luminosity | Snow |
|---|---|---|---|---|---|---|---|
| 1777797038 | 0.56° C | 83% | 1015.5 hPa | 0 mm | - | - | - |
| 1777796692 | 0.56° C | 83% | 1015.9 hPa | 0 mm | - | - | - |
| 1777791984 | 0.56° C | 82% | 1015.2 hPa | 0 mm | - | - | - |
| 1777789092 | 0.56° C | 80% | 1015.2 hPa | 0 mm | - | - | - |
| 1777786957 | 0.56° C | 81% | 1015.5 hPa | 0 mm | - | - | - |
| 1777786583 | 0.56° C | 82% | 1015.5 hPa | 0 mm | - | - | - |
| 1777786251 | 0.56° C | 81% | 1015.2 hPa | 0 mm | - | - | - |
| 1777785535 | 1.11° C | 78% | 1015.2 hPa | 0 mm | - | - | - |
| 1777783725 | 1.67° C | 78% | 1015.5 hPa | 0 mm | - | - | - |
| 1777783362 | 1.67° C | 78% | 1015.5 hPa | 0 mm | - | - | - |
| 1777782283 | 1.67° C | 78% | 1015.5 hPa | 0 mm | - | - | - |
| 1777781903 | 2.22° C | 78% | 1015.5 hPa | 0 mm | - | - | - |
| 1777781183 | 2.22° C | 79% | 1015.5 hPa | 0 mm | - | - | - |
| 1777780492 | 2.22° C | 78% | 1015.5 hPa | 0 mm | - | - | - |
| 1777779736 | 2.22° C | 79% | 1015.5 hPa | 0 mm | - | - | - |
| 1777777224 | 2.78° C | 74% | 1015.2 hPa | 0 mm | - | - | - |
| 1777775778 | 2.78° C | 71% | 1015.5 hPa | 0 mm | - | - | - |
| 1777771814 | 3.33° C | 68% | 1015.5 hPa | 0 mm | - | - | - |
| 1777769324 | 3.89° C | 60% | 1014.9 hPa | 0 mm | - | - | - |
| 1777767495 | 5° C | 52% | 1014.9 hPa | 0 mm | - | - | - |
| 1777751654 | 6.67° C | 45% | 1013.8 hPa | 0 mm | - | - | - |
| 1777723604 | 2.22° C | 82% | 1015.2 hPa | 0 mm | - | - | - |
| 1777722891 | 2.22° C | 83% | 1015.2 hPa | 0 mm | - | - | - |
| 1777717127 | 1.67° C | 87% | 1015.5 hPa | 0 mm | - | - | - |
| 1777701647 | 3.33° C | 84% | 1015.2 hPa | 0 mm | - | - | - |
* Rain since midnight (hover to see other rain measurements)
** Current wind speed in m/s (hover to see current wind gust speed)